sensor_id;sensor_type;location;lat;lon;timestamp;pressure;altitude;pressure_sealevel;temperature;humidity
48668;BME280;34453;52.198;5.004;2023-04-01T00:01:07;99187.75;;;9.53;100.00
48668;BME280;34453;52.198;5.004;2023-04-01T00:03:33;99196.44;;;9.54;100.00
48668;BME280;34453;52.198;5.004;2023-04-01T00:05:59;99188.75;;;9.52;100.00
48668;BME280;34453;52.198;5.004;2023-04-01T00:08:26;99201.88;;;9.44;100.00
48668;BME280;34453;52.198;5.004;2023-04-01T00:10:52;99210.34;;;9.46;100.00
48668;BME280;34453;52.198;5.004;2023-04-01T00:13:18;99199.56;;;9.49;100.00
48668;BME280;34453;52.198;5.004;2023-04-01T00:15:44;99210.00;;;9.49;100.00
48668;BME280;34453;52.198;5.004;2023-04-01T00:18:10;99204.78;;;9.49;100.00
48668;BME280;34453;52.198;5.004;2023-04-01T00:20:36;99214.63;;;9.39;100.00
48668;BME280;34453;52.198;5.004;2023-04-01T00:23:02;99206.16;;;9.37;100.00
48668;BME280;34453;52.198;5.004;2023-04-01T00:25:28;99213.34;;;9.35;100.00
48668;BME280;34453;52.198;5.004;2023-04-01T00:27:53;99224.13;;;9.32;100.00
48668;BME280;34453;52.198;5.004;2023-04-01T00:30:19;99207.19;;;9.28;100.00
48668;BME280;34453;52.198;5.004;2023-04-01T00:32:45;99215.66;;;9.30;100.00
48668;BME280;34453;52.198;5.004;2023-04-01T00:35:11;99211.25;;;9.30;100.00
48668;BME280;34453;52.198;5.004;2023-04-01T00:37:38;99216.63;;;9.29;100.00
48668;BME280;34453;52.198;5.004;2023-04-01T00:40:07;99215.34;;;9.25;100.00
48668;BME280;34453;52.198;5.004;2023-04-01T00:42:33;99219.97;;;9.23;100.00
48668;BME280;34453;52.198;5.004;2023-04-01T00:45:23;99219.97;;;9.23;100.00
48668;BME280;34453;52.198;5.004;2023-04-01T00:47:50;99225.19;;;9.23;100.00
48668;BME280;34453;52.198;5.004;2023-04-01T00:50:15;99225.47;;;9.28;100.00
48668;BME280;34453;52.198;5.004;2023-04-01T00:52:41;99219.97;;;9.23;100.00
48668;BME280;34453;52.198;5.004;2023-04-01T00:55:08;99221.91;;;9.21;100.00
48668;BME280;34453;52.198;5.004;2023-04-01T00:57:37;99237.75;;;9.19;100.00
48668;BME280;34453;52.198;5.004;2023-04-01T01:00:05;99227.81;;;9.15;100.00
48668;BME280;34453;52.198;5.004;2023-04-01T01:02:32;99230.25;;;9.16;100.00
48668;BME280;34453;52.198;5.004;2023-04-01T01:04:58;99230.44;;;9.15;100.00
48668;BME280;34453;52.198;5.004;2023-04-01T01:07:45;99222.13;;;9.11;100.00
48668;BME280;34453;52.198;5.004;2023-04-01T01:10:55;99227.16;;;9.12;100.00
48668;BME280;34453;52.198;5.004;2023-04-01T01:13:36;99226.88;;;9.07;100.00
48668;BME280;34453;52.198;5.004;2023-04-01T01:16:15;99233.56;;;9.02;100.00
48668;BME280;34453;52.198;5.004;2023-04-01T01:24:13;99238.34;;;8.98;100.00
48668;BME280;34453;52.198;5.004;2023-04-01T01:26:55;99243.22;;;9.01;100.00
48668;BME280;34453;52.198;5.004;2023-04-01T01:32:55;99240.31;;;8.96;100.00
48668;BME280;34453;52.198;5.004;2023-04-01T01:37:43;99242.72;;;8.98;100.00
48668;BME280;34453;52.198;5.004;2023-04-01T01:40:11;99245.19;;;8.91;100.00
48668;BME280;34453;52.198;5.004;2023-04-01T01:42:41;99250.25;;;8.92;100.00
48668;BME280;34453;52.198;5.004;2023-04-01T01:45:09;99241.44;;;8.93;100.00
48668;BME280;34453;52.198;5.004;2023-04-01T01:47:37;99252.06;;;8.92;100.00
48668;BME280;34453;52.198;5.004;2023-04-01T01:50:03;99253.22;;;8.89;100.00
48668;BME280;34453;52.198;5.004;2023-04-01T01:52:30;99252.22;;;8.90;100.00
48668;BME280;34453;52.198;5.004;2023-04-01T01:54:57;99245.38;;;8.89;100.00
48668;BME280;34453;52.198;5.004;2023-04-01T01:57:27;99254.66;;;8.92;100.00
48668;BME280;34453;52.198;5.004;2023-04-01T01:59:59;99261.50;;;8.93;100.00
48668;BME280;34453;52.198;5.004;2023-04-01T02:02:26;99260.69;;;8.92;100.00
48668;BME280;34453;52.198;5.004;2023-04-01T02:04:56;99258.22;;;8.91;100.00
48668;BME280;34453;52.198;5.004;2023-04-01T02:07:26;99273.56;;;8.94;100.00
48668;BME280;34453;52.198;5.004;2023-04-01T02:09:52;99269.97;;;8.95;100.00
48668;BME280;34453;52.198;5.004;2023-04-01T02:12:19;99272.06;;;9.00;100.00
48668;BME280;34453;52.198;5.004;2023-04-01T02:14:57;99269.66;;;8.98;100.00
48668;BME280;34453;52.198;5.004;2023-04-01T02:17:26;99268.81;;;8.98;100.00
48668;BME280;34453;52.198;5.004;2023-04-01T02:20:01;99284.94;;;9.01;100.00
48668;BME280;34453;52.198;5.004;2023-04-01T02:22:32;99284.94;;;9.01;100.00
48668;BME280;34453;52.198;5.004;2023-04-01T02:25:08;99286.56;;;9.02;100.00
48668;BME280;34453;52.198;5.004;2023-04-01T02:27:35;99289.81;;;9.04;100.00
48668;BME280;34453;52.198;5.004;2023-04-01T02:30:00;99299.09;;;9.07;100.00
48668;BME280;34453;52.198;5.004;2023-04-01T02:32:27;99296.00;;;9.11;100.00
48668;BME280;34453;52.198;5.004;2023-04-01T02:34:55;99303.19;;;9.09;100.00
48668;BME280;34453;52.198;5.004;2023-04-01T02:37:21;99301.22;;;9.11;100.00
48668;BME280;34453;52.198;5.004;2023-04-01T02:39:46;99299.56;;;9.10;100.00
48668;BME280;34453;52.198;5.004;2023-04-01T02:42:13;99305.44;;;9.12;100.00
48668;BME280;34453;52.198;5.004;2023-04-01T02:44:39;99308.69;;;9.15;100.00
48668;BME280;34453;52.198;5.004;2023-04-01T02:47:05;99305.75;;;9.18;100.00
48668;BME280;34453;52.198;5.004;2023-04-01T02:49:30;99317.81;;;9.19;100.00
48668;BME280;34453;52.198;5.004;2023-04-01T02:51:56;99319.13;;;9.23;100.00
48668;BME280;34453;52.198;5.004;2023-04-01T02:54:21;99317.47;;;9.22;100.00
48668;BME280;34453;52.198;5.004;2023-04-01T02:56:46;99323.19;;;9.25;100.00
48668;BME280;34453;52.198;5.004;2023-04-01T02:59:12;99326.75;;;9.24;100.00
48668;BME280;34453;52.198;5.004;2023-04-01T03:01:38;99326.59;;;9.26;100.00
48668;BME280;34453;52.198;5.004;2023-04-01T03:04:03;99332.78;;;9.25;100.00
48668;BME280;34453;52.198;5.004;2023-04-01T03:06:29;99332.09;;;9.31;100.00
48668;BME280;34453;52.198;5.004;2023-04-01T03:08:54;99328.84;;;9.29;100.00
48668;BME280;34453;52.198;5.004;2023-04-01T03:11:20;99339.63;;;9.34;100.00
48668;BME280;34453;52.198;5.004;2023-04-01T03:13:46;99331.78;;;9.34;100.00
48668;BME280;34453;52.198;5.004;2023-04-01T03:16:11;99349.06;;;9.35;100.00
48668;BME280;34453;52.198;5.004;2023-04-01T03:18:37;99337.31;;;9.39;100.00
48668;BME280;34453;52.198;5.004;2023-04-01T03:21:20;99350.34;;;9.39;100.00
48668;BME280;34453;52.198;5.004;2023-04-01T03:23:45;99356.22;;;9.41;100.00
48668;BME280;34453;52.198;5.004;2023-04-01T03:26:11;99363.06;;;9.42;100.00
48668;BME280;34453;52.198;5.004;2023-04-01T03:28:37;99364.50;;;9.45;100.00
48668;BME280;34453;52.198;5.004;2023-04-01T03:31:02;99371.50;;;9.52;100.00
48668;BME280;34453;52.198;5.004;2023-04-01T03:33:28;99380.31;;;9.51;100.00
48668;BME280;34453;52.198;5.004;2023-04-01T03:35:53;99380.94;;;9.62;100.00
48668;BME280;34453;52.198;5.004;2023-04-01T03:38:18;99387.16;;;9.61;100.00
48668;BME280;34453;52.198;5.004;2023-04-01T03:40:44;99388.13;;;9.60;100.00
48668;BME280;34453;52.198;5.004;2023-04-01T03:43:10;99390.22;;;9.64;100.00
48668;BME280;34453;52.198;5.004;2023-04-01T03:45:43;99397.53;;;9.69;100.00
48668;BME280;34453;52.198;5.004;2023-04-01T03:48:08;99397.53;;;9.69;100.00
48668;BME280;34453;52.198;5.004;2023-04-01T03:50:34;99401.00;;;9.69;100.00
48668;BME280;34453;52.198;5.004;2023-04-01T03:53:00;99401.72;;;9.78;100.00
48668;BME280;34453;52.198;5.004;2023-04-01T03:55:25;99415.28;;;9.82;100.00
48668;BME280;34453;52.198;5.004;2023-04-01T03:57:51;99415.13;;;9.83;100.00
48668;BME280;34453;52.198;5.004;2023-04-01T04:00:16;99414.63;;;9.80;100.00
48668;BME280;34453;52.198;5.004;2023-04-01T04:02:42;99423.59;;;9.85;100.00
48668;BME280;34453;52.198;5.004;2023-04-01T04:05:07;99420.34;;;9.83;100.00
48668;BME280;34453;52.198;5.004;2023-04-01T04:07:34;99431.25;;;9.87;100.00
48668;BME280;34453;52.198;5.004;2023-04-01T04:09:59;99429.47;;;9.87;100.00
48668;BME280;34453;52.198;5.004;2023-04-01T04:12:25;99440.56;;;9.89;100.00
48668;BME280;34453;52.198;5.004;2023-04-01T04:14:50;99440.56;;;9.89;100.00
48668;BME280;34453;52.198;5.004;2023-04-01T04:17:16;99444.16;;;9.88;100.00
48668;BME280;34453;52.198;5.004;2023-04-01T04:19:42;99438.91;;;9.88;100.00
48668;BME280;34453;52.198;5.004;2023-04-01T04:22:07;99445.44;;;9.92;100.00
48668;BME280;34453;52.198;5.004;2023-04-01T04:24:36;99449.66;;;9.93;100.00
48668;BME280;34453;52.198;5.004;2023-04-01T04:27:03;99451.94;;;9.96;100.00
48668;BME280;34453;52.198;5.004;2023-04-01T04:29:29;99456.53;;;9.94;100.00
48668;BME280;34453;52.198;5.004;2023-04-01T04:31:54;99456.84;;;9.91;100.00
48668;BME280;34453;52.198;5.004;2023-04-01T04:34:20;99473.53;;;9.90;100.00
48668;BME280;34453;52.198;5.004;2023-04-01T04:36:47;99469.31;;;9.89;100.00
48668;BME280;34453;52.198;5.004;2023-04-01T04:39:13;99484.78;;;9.91;100.00
48668;BME280;34453;52.198;5.004;2023-04-01T04:41:38;99477.94;;;9.90;100.00
48668;BME280;34453;52.198;5.004;2023-04-01T04:44:04;99488.72;;;9.87;100.00
48668;BME280;34453;52.198;5.004;2023-04-01T04:46:30;99484.97;;;9.89;100.00
48668;BME280;34453;52.198;5.004;2023-04-01T04:48:55;99489.84;;;9.92;100.00
48668;BME280;34453;52.198;5.004;2023-04-01T04:51:21;99497.03;;;9.90;100.00
48668;BME280;34453;52.198;5.004;2023-04-01T04:53:48;99494.44;;;9.90;100.00
48668;BME280;34453;52.198;5.004;2023-04-01T04:56:17;99508.81;;;9.86;100.00
48668;BME280;34453;52.198;5.004;2023-04-01T04:58:43;99499.66;;;9.90;100.00
48668;BME280;34453;52.198;5.004;2023-04-01T05:01:10;99520.72;;;9.89;100.00
48668;BME280;34453;52.198;5.004;2023-04-01T05:03:37;99527.75;;;9.88;100.00
48668;BME280;34453;52.198;5.004;2023-04-01T05:06:03;99525.44;;;9.93;100.00
48668;BME280;34453;52.198;5.004;2023-04-01T05:08:29;99525.78;;;9.90;100.00
48668;BME280;34453;52.198;5.004;2023-04-01T05:10:55;99519.75;;;9.90;100.00
48668;BME280;34453;52.198;5.004;2023-04-01T05:13:20;99528.69;;;9.95;100.00
48668;BME280;34453;52.198;5.004;2023-04-01T05:15:46;99531.94;;;9.98;100.00
48668;BME280;34453;52.198;5.004;2023-04-01T05:18:11;99542.75;;;9.94;100.00
48668;BME280;34453;52.198;5.004;2023-04-01T05:20:36;99541.44;;;9.90;100.00
48668;BME280;34453;52.198;5.004;2023-04-01T05:23:02;99555.50;;;9.89;100.00
48668;BME280;34453;52.198;5.004;2023-04-01T05:25:27;99555.03;;;9.86;100.00
48668;BME280;34453;52.198;5.004;2023-04-01T05:27:53;99555.50;;;9.89;100.00
48668;BME280;34453;52.198;5.004;2023-04-01T05:30:18;99561.53;;;9.90;100.00
48668;BME280;34453;52.198;5.004;2023-04-01T05:32:44;99563.66;;;9.86;100.00
48668;BME280;34453;52.198;5.004;2023-04-01T05:35:10;99574.63;;;9.82;100.00
48668;BME280;34453;52.198;5.004;2023-04-01T05:37:35;99574.13;;;9.78;100.00
48668;BME280;34453;52.198;5.004;2023-04-01T05:40:01;99577.06;;;9.83;100.00
48668;BME280;34453;52.198;5.004;2023-04-01T05:42:27;99581.00;;;9.79;100.00
48668;BME280;34453;52.198;5.004;2023-04-01T05:44:52;99585.06;;;9.82;100.00
48668;BME280;34453;52.198;5.004;2023-04-01T05:47:18;99592.59;;;9.77;100.00
48668;BME280;34453;52.198;5.004;2023-04-01T05:49:43;99589.78;;;9.78;100.00
48668;BME280;34453;52.198;5.004;2023-04-01T05:52:09;99594.72;;;9.81;100.00
48668;BME280;34453;52.198;5.004;2023-04-01T05:54:34;99588.97;;;9.78;100.00
48668;BME280;34453;52.198;5.004;2023-04-01T05:56:59;99596.50;;;9.72;100.00
48668;BME280;34453;52.198;5.004;2023-04-01T05:59:25;99602.69;;;9.80;100.00
48668;BME280;34453;52.198;5.004;2023-04-01T06:01:50;99608.25;;;9.77;100.00
48668;BME280;34453;52.198;5.004;2023-04-01T06:04:17;99607.13;;;9.79;100.00
48668;BME280;34453;52.198;5.004;2023-04-01T06:06:43;99607.63;;;9.74;100.00
48668;BME280;34453;52.198;5.004;2023-04-01T06:12:06;99613.16;;;9.71;100.00
48668;BME280;34453;52.198;5.004;2023-04-01T06:17:30;99629.66;;;9.64;100.00
48668;BME280;34453;52.198;5.004;2023-04-01T06:22:42;99646.13;;;9.64;100.00
48668;BME280;34453;52.198;5.004;2023-04-01T06:31:01;99650.88;;;9.77;100.00
48668;BME280;34453;52.198;5.004;2023-04-01T06:36:19;99674.38;;;9.77;100.00
48668;BME280;34453;52.198;5.004;2023-04-01T06:52:30;99689.06;;;9.78;100.00
48668;BME280;34453;52.198;5.004;2023-04-01T06:55:12;99697.53;;;9.80;100.00
48668;BME280;34453;52.198;5.004;2023-04-01T06:57:46;99692.97;;;9.82;100.00
48668;BME280;34453;52.198;5.004;2023-04-01T07:02:56;99707.03;;;9.81;100.00
48668;BME280;34453;52.198;5.004;2023-04-01T07:05:25;99716.19;;;9.85;100.00
48668;BME280;34453;52.198;5.004;2023-04-01T07:07:57;99725.31;;;9.81;100.00
48668;BME280;34453;52.198;5.004;2023-04-01T07:10:38;99725.16;;;9.83;100.00
48668;BME280;34453;52.198;5.004;2023-04-01T07:13:36;99727.94;;;9.81;100.00
48668;BME280;34453;52.198;5.004;2023-04-01T07:16:07;99725.00;;;9.76;100.00
48668;BME280;34453;52.198;5.004;2023-04-01T07:18:44;99743.25;;;9.84;100.00
48668;BME280;34453;52.198;5.004;2023-04-01T07:21:32;99743.09;;;9.86;100.00
48668;BME280;34453;52.198;5.004;2023-04-01T07:24:05;99746.03;;;9.91;100.00
48668;BME280;34453;52.198;5.004;2023-04-01T07:26:31;99755.34;;;9.85;100.00
48668;BME280;34453;52.198;5.004;2023-04-01T07:28:57;99745.72;;;9.78;100.00
48668;BME280;34453;52.198;5.004;2023-04-01T07:36:45;99758.63;;;9.87;100.00
48668;BME280;34453;52.198;5.004;2023-04-01T07:42:29;99765.78;;;9.93;100.00
48668;BME280;34453;52.198;5.004;2023-04-01T07:48:31;99781.16;;;9.96;100.00
48668;BME280;34453;52.198;5.004;2023-04-01T07:51:19;99775.13;;;9.96;100.00
48668;BME280;34453;52.198;5.004;2023-04-01T07:54:13;99777.06;;;10.02;100.00
48668;BME280;34453;52.198;5.004;2023-04-01T07:56:51;99788.97;;;10.05;100.00
48668;BME280;34453;52.198;5.004;2023-04-01T08:05:01;99789.66;;;9.99;100.00
48668;BME280;34453;52.198;5.004;2023-04-01T08:21:45;99822.66;;;10.16;100.00
48668;BME280;34453;52.198;5.004;2023-04-01T08:24:34;99834.25;;;10.22;100.00
48668;BME280;34453;52.198;5.004;2023-04-01T08:27:05;99829.03;;;10.22;100.00
48668;BME280;34453;52.198;5.004;2023-04-01T08:32:09;99840.16;;;10.32;100.00
48668;BME280;34453;52.198;5.004;2023-04-01T08:34:40;99845.88;;;10.44;100.00
48668;BME280;34453;52.198;5.004;2023-04-01T08:37:11;99852.22;;;10.25;100.00
48668;BME280;34453;52.198;5.004;2023-04-01T08:39:50;99846.88;;;10.43;100.00
48668;BME280;34453;52.198;5.004;2023-04-01T08:48:08;99860.25;;;10.56;100.00
48668;BME280;34453;52.198;5.004;2023-04-01T08:50:58;99873.16;;;10.57;100.00
48668;BME280;34453;52.198;5.004;2023-04-01T08:56:18;99871.84;;;10.70;100.00
48668;BME280;34453;52.198;5.004;2023-04-01T09:04:01;99887.06;;;10.74;100.00
48668;BME280;34453;52.198;5.004;2023-04-01T09:18:02;99885.72;;;10.87;100.00
48668;BME280;34453;52.198;5.004;2023-04-01T09:28:33;99905.94;;;11.09;100.00
48668;BME280;34453;52.198;5.004;2023-04-01T09:31:38;99905.19;;;11.01;100.00
48668;BME280;34453;52.198;5.004;2023-04-01T09:40:08;99920.22;;;10.98;100.00
48668;BME280;34453;52.198;5.004;2023-04-01T09:43:15;99921.03;;;10.83;100.00
48668;BME280;34453;52.198;5.004;2023-04-01T09:46:11;99928.38;;;11.12;100.00
48668;BME280;34453;52.198;5.004;2023-04-01T09:49:26;99932.25;;;11.32;100.00
48668;BME280;34453;52.198;5.004;2023-04-01T09:52:38;99923.22;;;11.43;100.00
48668;BME280;34453;52.198;5.004;2023-04-01T10:07:01;99930.47;;;11.72;100.00
48668;BME280;34453;52.198;5.004;2023-04-01T10:18:36;99948.44;;;12.23;100.00
48668;BME280;34453;52.198;5.004;2023-04-01T10:29:29;99956.22;;;12.08;100.00
48668;BME280;34453;52.198;5.004;2023-04-01T10:40:42;99975.06;;;12.12;100.00
48668;BME280;34453;52.198;5.004;2023-04-01T11:24:09;100001.88;;;12.14;100.00
48668;BME280;34453;52.198;5.004;2023-04-01T11:32:52;100007.41;;;12.27;100.00
48668;BME280;34453;52.198;5.004;2023-04-01T11:40:54;100036.34;;;12.11;100.00
48668;BME280;34453;52.198;5.004;2023-04-01T11:43:48;100027.38;;;11.97;100.00
48668;BME280;34453;52.198;5.004;2023-04-01T11:46:36;100035.09;;;11.82;100.00
48668;BME280;34453;52.198;5.004;2023-04-01T11:55:10;100050.25;;;12.11;100.00
48668;BME280;34453;52.198;5.004;2023-04-01T11:57:59;100047.75;;;12.26;100.00
48668;BME280;34453;52.198;5.004;2023-04-01T12:06:57;100059.84;;;12.27;100.00
48668;BME280;34453;52.198;5.004;2023-04-01T12:24:05;100083.03;;;12.47;100.00
48668;BME280;34453;52.198;5.004;2023-04-01T12:43:01;100111.88;;;12.86;100.00
48668;BME280;34453;52.198;5.004;2023-04-01T12:45:32;100102.34;;;12.54;100.00
48668;BME280;34453;52.198;5.004;2023-04-01T12:51:01;100114.63;;;12.14;100.00
48668;BME280;34453;52.198;5.004;2023-04-01T12:53:52;100118.56;;;12.18;100.00
48668;BME280;34453;52.198;5.004;2023-04-01T12:57:18;100124.38;;;12.44;100.00
48668;BME280;34453;52.198;5.004;2023-04-01T13:08:20;100135.72;;;12.76;100.00
48668;BME280;34453;52.198;5.004;2023-04-01T13:30:39;100182.66;;;11.82;100.00
48668;BME280;34453;52.198;5.004;2023-04-01T13:33:29;100184.81;;;11.71;100.00
48668;BME280;34453;52.198;5.004;2023-04-01T13:39:02;100210.19;;;11.46;100.00
48668;BME280;34453;52.198;5.004;2023-04-01T13:44:28;100201.84;;;11.50;100.00
48668;BME280;34453;52.198;5.004;2023-04-01T13:50:18;100212.28;;;11.26;100.00
48668;BME280;34453;52.198;5.004;2023-04-01T14:03:57;100232.50;;;10.99;100.00
48668;BME280;34453;52.198;5.004;2023-04-01T14:23:37;100265.81;;;10.81;100.00
48668;BME280;34453;52.198;5.004;2023-04-01T14:29:15;100275.03;;;10.67;100.00
48668;BME280;34453;52.198;5.004;2023-04-01T14:32:11;100282.53;;;10.62;100.00
48668;BME280;34453;52.198;5.004;2023-04-01T14:43:16;100304.59;;;10.59;100.00
48668;BME280;34453;52.198;5.004;2023-04-01T14:48:38;100314.75;;;10.62;100.00
48668;BME280;34453;52.198;5.004;2023-04-01T14:53:38;100318.34;;;10.61;100.00
48668;BME280;34453;52.198;5.004;2023-04-01T14:56:10;100320.56;;;10.56;100.00
48668;BME280;34453;52.198;5.004;2023-04-01T14:58:46;100326.94;;;10.53;100.00
48668;BME280;34453;52.198;5.004;2023-04-01T15:01:30;100327.72;;;10.46;100.00
48668;BME280;34453;52.198;5.004;2023-04-01T15:04:02;100327.38;;;10.41;100.00
48668;BME280;34453;52.198;5.004;2023-04-01T15:06:41;100332.59;;;10.41;100.00
48668;BME280;34453;52.198;5.004;2023-04-01T15:28:39;100369.50;;;10.37;100.00
48668;BME280;34453;52.198;5.004;2023-04-01T15:31:50;100383.34;;;10.30;100.00
48668;BME280;34453;52.198;5.004;2023-04-01T15:34:49;100398.84;;;10.31;100.00
48668;BME280;34453;52.198;5.004;2023-04-01T15:37:30;100401.06;;;10.26;100.00
48668;BME280;34453;52.198;5.004;2023-04-01T15:40:40;100402.34;;;10.22;100.00
48668;BME280;34453;52.198;5.004;2023-04-01T15:43:18;100410.25;;;10.12;100.00
48668;BME280;34453;52.198;5.004;2023-04-01T15:55:12;100430.25;;;10.04;100.00
48668;BME280;34453;52.198;5.004;2023-04-01T15:57:52;100442.66;;;10.02;100.00
48668;BME280;34453;52.198;5.004;2023-04-01T16:00:31;100438.41;;;10.01;100.00
48668;BME280;34453;52.198;5.004;2023-04-01T16:18:48;100472.53;;;9.99;100.00
48668;BME280;34453;52.198;5.004;2023-04-01T16:24:05;100472.38;;;10.01;100.00
48668;BME280;34453;52.198;5.004;2023-04-01T16:29:30;100479.81;;;9.95;100.00
48668;BME280;34453;52.198;5.004;2023-04-01T16:32:21;100491.13;;;9.96;100.00
48668;BME280;34453;52.198;5.004;2023-04-01T16:43:30;100514.53;;;9.88;100.00
48668;BME280;34453;52.198;5.004;2023-04-01T16:51:48;100534.63;;;9.78;100.00
48668;BME280;34453;52.198;5.004;2023-04-01T17:02:33;100550.06;;;9.71;100.00
48668;BME280;34453;52.198;5.004;2023-04-01T17:05:08;100554.34;;;9.72;100.00
48668;BME280;34453;52.198;5.004;2023-04-01T17:08:03;100563.66;;;9.74;100.00
48668;BME280;34453;52.198;5.004;2023-04-01T17:23:00;100608.38;;;9.62;100.00
48668;BME280;34453;52.198;5.004;2023-04-01T17:30:29;100619.25;;;9.38;100.00
48668;BME280;34453;52.198;5.004;2023-04-01T17:41:46;100661.47;;;9.23;100.00
48668;BME280;34453;52.198;5.004;2023-04-01T17:47:16;100672.56;;;9.16;100.00
48668;BME280;34453;52.198;5.004;2023-04-01T17:50:18;100680.25;;;9.17;100.00
48668;BME280;34453;52.198;5.004;2023-04-01T17:53:01;100692.22;;;9.20;100.00
48668;BME280;34453;52.198;5.004;2023-04-01T17:58:27;100696.06;;;9.16;100.00
48668;BME280;34453;52.198;5.004;2023-04-01T18:03:53;100702.38;;;9.13;100.00
48668;BME280;34453;52.198;5.004;2023-04-01T18:06:31;100704.69;;;9.06;100.00
48668;BME280;34453;52.198;5.004;2023-04-01T18:09:05;100713.09;;;9.10;100.00
48668;BME280;34453;52.198;5.004;2023-04-01T18:19:43;100745.50;;;9.07;100.00
48668;BME280;34453;52.198;5.004;2023-04-01T18:25:12;100761.41;;;9.04;100.00
48668;BME280;34453;52.198;5.004;2023-04-01T18:27:42;100768.53;;;9.02;100.00
48668;BME280;34453;52.198;5.004;2023-04-01T18:30:28;100774.22;;;9.07;100.00
48668;BME280;34453;52.198;5.004;2023-04-01T18:33:06;100790.41;;;9.01;100.00
48668;BME280;34453;52.198;5.004;2023-04-01T18:40:35;100797.94;;;8.95;100.00
48668;BME280;34453;52.198;5.004;2023-04-01T18:45:37;100812.19;;;8.90;100.00
48668;BME280;34453;52.198;5.004;2023-04-01T18:51:01;100824.00;;;8.85;100.00
48668;BME280;34453;52.198;5.004;2023-04-01T18:53:39;100830.16;;;8.84;100.00
48668;BME280;34453;52.198;5.004;2023-04-01T18:56:09;100834.78;;;8.80;100.00
48668;BME280;34453;52.198;5.004;2023-04-01T18:58:47;100845.28;;;8.69;100.00
48668;BME280;34453;52.198;5.004;2023-04-01T19:01:25;100855.72;;;8.69;100.00
48668;BME280;34453;52.198;5.004;2023-04-01T19:04:00;100858.16;;;8.61;100.00
48668;BME280;34453;52.198;5.004;2023-04-01T19:06:50;100864.47;;;8.58;100.00
48668;BME280;34453;52.198;5.004;2023-04-01T19:09:18;100870.25;;;8.62;100.00
48668;BME280;34453;52.198;5.004;2023-04-01T19:14:52;100872.81;;;8.52;100.00
48668;BME280;34453;52.198;5.004;2023-04-01T19:20:27;100890.41;;;8.60;100.00
48668;BME280;34453;52.198;5.004;2023-04-01T19:25:55;100903.53;;;8.69;100.00
48668;BME280;34453;52.198;5.004;2023-04-01T19:36:29;100919.47;;;8.55;100.00
48668;BME280;34453;52.198;5.004;2023-04-01T19:39:10;100926.25;;;8.46;100.00
48668;BME280;34453;52.198;5.004;2023-04-01T19:47:23;100942.75;;;8.36;100.00
48668;BME280;34453;52.198;5.004;2023-04-01T19:58:48;100972.88;;;8.28;100.00
48668;BME280;34453;52.198;5.004;2023-04-01T20:01:24;100978.34;;;8.25;100.00
48668;BME280;34453;52.198;5.004;2023-04-01T20:03:55;100984.03;;;8.19;100.00
48668;BME280;34453;52.198;5.004;2023-04-01T20:06:33;100987.34;;;8.21;100.00
48668;BME280;34453;52.198;5.004;2023-04-01T20:14:50;101009.84;;;8.22;100.00
48668;BME280;34453;52.198;5.004;2023-04-01T20:17:26;101018.28;;;8.15;100.00
48668;BME280;34453;52.198;5.004;2023-04-01T20:39:14;101050.50;;;7.80;100.00
48668;BME280;34453;52.198;5.004;2023-04-01T20:47:18;101081.91;;;7.78;100.00
48668;BME280;34453;52.198;5.004;2023-04-01T20:49:57;101083.06;;;7.74;100.00
48668;BME280;34453;52.198;5.004;2023-04-01T20:55:54;101097.03;;;7.73;100.00
48668;BME280;34453;52.198;5.004;2023-04-01T20:58:07;101100.59;;;7.72;100.00
48668;BME280;34453;52.198;5.004;2023-04-01T21:00:50;101116.78;;;7.76;100.00
48668;BME280;34453;52.198;5.004;2023-04-01T21:03:29;101120.00;;;7.79;100.00
48668;BME280;34453;52.198;5.004;2023-04-01T21:06:15;101111.13;;;7.71;100.00
48668;BME280;34453;52.198;5.004;2023-04-01T21:20:38;101141.34;;;7.49;100.00
48668;BME280;34453;52.198;5.004;2023-04-01T21:25:53;101151.44;;;7.54;100.00
48668;BME280;34453;52.198;5.004;2023-04-01T21:31:23;101166.13;;;7.55;100.00
48668;BME280;34453;52.198;5.004;2023-04-01T21:43:00;101181.81;;;7.42;100.00
48668;BME280;34453;52.198;5.004;2023-04-01T21:54:20;101207.13;;;7.40;100.00
48668;BME280;34453;52.198;5.004;2023-04-01T22:05:27;101228.28;;;7.35;100.00
48668;BME280;34453;52.198;5.004;2023-04-01T22:10:59;101241.09;;;7.38;100.00
48668;BME280;34453;52.198;5.004;2023-04-01T22:16:12;101248.13;;;7.25;100.00
48668;BME280;34453;52.198;5.004;2023-04-01T22:19:24;101253.75;;;7.19;100.00
48668;BME280;34453;52.198;5.004;2023-04-01T22:26:44;101276.75;;;7.25;100.00
48668;BME280;34453;52.198;5.004;2023-04-01T22:29:23;101274.56;;;7.19;100.00
48668;BME280;34453;52.198;5.004;2023-04-01T22:32:02;101278.94;;;7.18;100.00
48668;BME280;34453;52.198;5.004;2023-04-01T22:34:52;101277.28;;;7.17;100.00
48668;BME280;34453;52.198;5.004;2023-04-01T22:37:37;101281.88;;;7.14;100.00
48668;BME280;34453;52.198;5.004;2023-04-01T22:43:06;101291.22;;;7.16;100.00
48668;BME280;34453;52.198;5.004;2023-04-01T22:48:46;101305.81;;;7.06;100.00
48668;BME280;34453;52.198;5.004;2023-04-01T22:53:52;101324.84;;;7.06;100.00
48668;BME280;34453;52.198;5.004;2023-04-01T22:56:53;101327.56;;;7.05;100.00
48668;BME280;34453;52.198;5.004;2023-04-01T22:59:42;101326.13;;;7.01;100.00
48668;BME280;34453;52.198;5.004;2023-04-01T23:03:08;101331.66;;;6.96;100.00
48668;BME280;34453;52.198;5.004;2023-04-01T23:05:30;101337.44;;;7.00;100.00
48668;BME280;34453;52.198;5.004;2023-04-01T23:08:07;101343.28;;;7.03;100.00
48668;BME280;34453;52.198;5.004;2023-04-01T23:10:52;101342.88;;;6.97;100.00
48668;BME280;34453;52.198;5.004;2023-04-01T23:13:24;101344.56;;;6.85;100.00
48668;BME280;34453;52.198;5.004;2023-04-01T23:15:53;101358.47;;;6.84;100.00
48668;BME280;34453;52.198;5.004;2023-04-01T23:18:33;101365.78;;;6.92;100.00
48668;BME280;34453;52.198;5.004;2023-04-01T23:24:41;101363.06;;;6.93;100.00